sensor_id;sensor_type;location;lat;lon;timestamp;temperature;humidity
43285;DHT22;28880;48.844;9.030;2022-09-09T00:00:32;15.80;99.90
43285;DHT22;28880;48.844;9.030;2022-09-09T00:03:19;15.80;99.90
43285;DHT22;28880;48.844;9.030;2022-09-09T00:06:11;15.80;99.90
43285;DHT22;28880;48.844;9.030;2022-09-09T00:11:39;15.80;99.90
43285;DHT22;28880;48.844;9.030;2022-09-09T00:14:13;15.80;99.90
43285;DHT22;28880;48.844;9.030;2022-09-09T00:16:45;15.70;99.90
43285;DHT22;28880;48.844;9.030;2022-09-09T00:19:22;15.70;99.90
43285;DHT22;28880;48.844;9.030;2022-09-09T00:22:15;15.60;99.90
43285;DHT22;28880;48.844;9.030;2022-09-09T00:24:52;15.60;99.90
43285;DHT22;28880;48.844;9.030;2022-09-09T00:27:24;15.60;99.90
43285;DHT22;28880;48.844;9.030;2022-09-09T00:29:56;15.50;99.90
43285;DHT22;28880;48.844;9.030;2022-09-09T00:32:25;15.50;99.90
43285;DHT22;28880;48.844;9.030;2022-09-09T00:34:55;15.50;99.90
43285;DHT22;28880;48.844;9.030;2022-09-09T00:37:22;15.50;99.90
43285;DHT22;28880;48.844;9.030;2022-09-09T00:39:52;15.50;99.90
43285;DHT22;28880;48.844;9.030;2022-09-09T00:42:39;15.50;99.90
43285;DHT22;28880;48.844;9.030;2022-09-09T00:47:53;15.50;99.90
43285;DHT22;28880;48.844;9.030;2022-09-09T00:55:45;15.60;99.90
43285;DHT22;28880;48.844;9.030;2022-09-09T00:58:13;15.70;99.90
43285;DHT22;28880;48.844;9.030;2022-09-09T01:00:52;15.70;99.90
43285;DHT22;28880;48.844;9.030;2022-09-09T01:03:35;15.80;99.90
43285;DHT22;28880;48.844;9.030;2022-09-09T01:06:15;15.80;99.90
43285;DHT22;28880;48.844;9.030;2022-09-09T01:11:27;15.80;99.90
43285;DHT22;28880;48.844;9.030;2022-09-09T01:14:16;15.90;99.90
43285;DHT22;28880;48.844;9.030;2022-09-09T01:16:45;15.90;99.90
43285;DHT22;28880;48.844;9.030;2022-09-09T01:19:24;15.90;99.90
43285;DHT22;28880;48.844;9.030;2022-09-09T01:22:01;15.90;99.90
43285;DHT22;28880;48.844;9.030;2022-09-09T01:24:40;15.90;99.90
43285;DHT22;28880;48.844;9.030;2022-09-09T01:27:07;15.90;99.90
43285;DHT22;28880;48.844;9.030;2022-09-09T01:29:34;15.90;99.90
43285;DHT22;28880;48.844;9.030;2022-09-09T01:34:44;15.90;99.90
43285;DHT22;28880;48.844;9.030;2022-09-09T01:37:12;15.90;99.90
43285;DHT22;28880;48.844;9.030;2022-09-09T01:39:40;15.90;99.90
43285;DHT22;28880;48.844;9.030;2022-09-09T01:42:09;15.90;99.90
43285;DHT22;28880;48.844;9.030;2022-09-09T01:44:35;15.90;99.90
43285;DHT22;28880;48.844;9.030;2022-09-09T01:47:02;15.90;99.90
43285;DHT22;28880;48.844;9.030;2022-09-09T01:49:28;15.80;99.90
43285;DHT22;28880;48.844;9.030;2022-09-09T01:51:55;15.80;99.90
43285;DHT22;28880;48.844;9.030;2022-09-09T01:54:23;15.80;99.90
43285;DHT22;28880;48.844;9.030;2022-09-09T01:59:25;15.80;99.90
43285;DHT22;28880;48.844;9.030;2022-09-09T02:01:57;15.70;99.90
43285;DHT22;28880;48.844;9.030;2022-09-09T02:04:41;15.70;99.90
43285;DHT22;28880;48.844;9.030;2022-09-09T02:07:11;15.70;99.90
43285;DHT22;28880;48.844;9.030;2022-09-09T02:09:40;15.60;99.90
43285;DHT22;28880;48.844;9.030;2022-09-09T02:12:14;15.50;99.90
43285;DHT22;28880;48.844;9.030;2022-09-09T02:14:48;15.60;99.90
43285;DHT22;28880;48.844;9.030;2022-09-09T02:17:19;15.50;99.90
43285;DHT22;28880;48.844;9.030;2022-09-09T02:20:13;15.40;99.90
43285;DHT22;28880;48.844;9.030;2022-09-09T02:22:40;15.40;99.90
43285;DHT22;28880;48.844;9.030;2022-09-09T02:25:08;15.30;99.90
43285;DHT22;28880;48.844;9.030;2022-09-09T02:27:35;15.20;99.90
43285;DHT22;28880;48.844;9.030;2022-09-09T02:30:02;15.20;99.90
43285;DHT22;28880;48.844;9.030;2022-09-09T02:32:29;15.20;99.90
43285;DHT22;28880;48.844;9.030;2022-09-09T02:35:07;15.20;99.90
43285;DHT22;28880;48.844;9.030;2022-09-09T02:37:38;15.10;99.90
43285;DHT22;28880;48.844;9.030;2022-09-09T02:40:06;15.10;99.90
43285;DHT22;28880;48.844;9.030;2022-09-09T02:42:38;15.00;99.90
43285;DHT22;28880;48.844;9.030;2022-09-09T02:45:04;15.00;99.90
43285;DHT22;28880;48.844;9.030;2022-09-09T02:47:35;14.90;99.90
43285;DHT22;28880;48.844;9.030;2022-09-09T02:50:04;14.90;99.90
43285;DHT22;28880;48.844;9.030;2022-09-09T02:55:18;14.80;99.90
43285;DHT22;28880;48.844;9.030;2022-09-09T02:57:46;14.70;99.90
43285;DHT22;28880;48.844;9.030;2022-09-09T03:00:13;14.60;99.90
43285;DHT22;28880;48.844;9.030;2022-09-09T03:02:39;14.60;99.90
43285;DHT22;28880;48.844;9.030;2022-09-09T03:05:05;14.60;99.90
43285;DHT22;28880;48.844;9.030;2022-09-09T03:07:31;14.60;99.90
43285;DHT22;28880;48.844;9.030;2022-09-09T03:09:57;14.60;99.90
43285;DHT22;28880;48.844;9.030;2022-09-09T03:12:23;14.60;99.90
43285;DHT22;28880;48.844;9.030;2022-09-09T03:14:49;14.60;99.90
43285;DHT22;28880;48.844;9.030;2022-09-09T03:17:15;14.60;99.90
43285;DHT22;28880;48.844;9.030;2022-09-09T03:19:40;14.60;99.90
43285;DHT22;28880;48.844;9.030;2022-09-09T03:22:06;14.50;99.90
43285;DHT22;28880;48.844;9.030;2022-09-09T03:24:33;14.60;99.90
43285;DHT22;28880;48.844;9.030;2022-09-09T03:26:58;14.50;99.90
43285;DHT22;28880;48.844;9.030;2022-09-09T03:29:24;14.50;99.90
43285;DHT22;28880;48.844;9.030;2022-09-09T03:31:49;14.40;99.90
43285;DHT22;28880;48.844;9.030;2022-09-09T03:34:16;14.40;99.90
43285;DHT22;28880;48.844;9.030;2022-09-09T03:36:41;14.40;99.90
43285;DHT22;28880;48.844;9.030;2022-09-09T03:39:07;14.40;99.90
43285;DHT22;28880;48.844;9.030;2022-09-09T03:41:33;14.30;99.90
43285;DHT22;28880;48.844;9.030;2022-09-09T03:43:59;14.30;99.90
43285;DHT22;28880;48.844;9.030;2022-09-09T03:46:25;14.30;99.90
43285;DHT22;28880;48.844;9.030;2022-09-09T03:48:51;14.30;99.90
43285;DHT22;28880;48.844;9.030;2022-09-09T03:51:20;14.20;99.90
43285;DHT22;28880;48.844;9.030;2022-09-09T03:53:46;14.20;99.90
43285;DHT22;28880;48.844;9.030;2022-09-09T03:56:12;14.30;99.90
43285;DHT22;28880;48.844;9.030;2022-09-09T03:58:37;14.40;99.90
43285;DHT22;28880;48.844;9.030;2022-09-09T04:01:06;14.40;99.90
43285;DHT22;28880;48.844;9.030;2022-09-09T04:03:33;14.40;99.90
43285;DHT22;28880;48.844;9.030;2022-09-09T04:06:00;14.50;99.90
43285;DHT22;28880;48.844;9.030;2022-09-09T04:08:27;14.40;99.90
43285;DHT22;28880;48.844;9.030;2022-09-09T04:10:53;14.40;99.90
43285;DHT22;28880;48.844;9.030;2022-09-09T04:13:24;14.40;99.90
43285;DHT22;28880;48.844;9.030;2022-09-09T04:15:57;14.40;99.90
43285;DHT22;28880;48.844;9.030;2022-09-09T04:18:24;14.50;99.90
43285;DHT22;28880;48.844;9.030;2022-09-09T04:20:52;14.50;99.90
43285;DHT22;28880;48.844;9.030;2022-09-09T04:23:18;14.50;99.90
43285;DHT22;28880;48.844;9.030;2022-09-09T04:25:46;14.50;99.90
43285;DHT22;28880;48.844;9.030;2022-09-09T04:28:14;14.60;99.90
43285;DHT22;28880;48.844;9.030;2022-09-09T04:30:39;14.60;99.90
43285;DHT22;28880;48.844;9.030;2022-09-09T04:33:05;14.60;99.90
43285;DHT22;28880;48.844;9.030;2022-09-09T04:35:32;14.60;99.90
43285;DHT22;28880;48.844;9.030;2022-09-09T04:37:58;14.70;99.90
43285;DHT22;28880;48.844;9.030;2022-09-09T04:40:24;14.70;99.90
43285;DHT22;28880;48.844;9.030;2022-09-09T04:42:50;14.70;99.90
43285;DHT22;28880;48.844;9.030;2022-09-09T04:45:16;14.60;99.90
43285;DHT22;28880;48.844;9.030;2022-09-09T04:47:42;14.60;99.90
43285;DHT22;28880;48.844;9.030;2022-09-09T04:50:08;14.50;99.90
43285;DHT22;28880;48.844;9.030;2022-09-09T04:52:34;14.50;99.90
43285;DHT22;28880;48.844;9.030;2022-09-09T04:55:01;14.50;99.90
43285;DHT22;28880;48.844;9.030;2022-09-09T04:57:27;14.50;99.90
43285;DHT22;28880;48.844;9.030;2022-09-09T04:59:54;14.50;99.90
43285;DHT22;28880;48.844;9.030;2022-09-09T05:02:19;14.50;99.90
43285;DHT22;28880;48.844;9.030;2022-09-09T05:04:45;14.50;99.90
43285;DHT22;28880;48.844;9.030;2022-09-09T05:07:10;14.50;99.90
43285;DHT22;28880;48.844;9.030;2022-09-09T05:09:36;14.50;99.90
43285;DHT22;28880;48.844;9.030;2022-09-09T05:12:01;14.50;99.90
43285;DHT22;28880;48.844;9.030;2022-09-09T05:14:28;14.50;99.90
43285;DHT22;28880;48.844;9.030;2022-09-09T05:16:54;14.50;99.90
43285;DHT22;28880;48.844;9.030;2022-09-09T05:19:21;14.50;99.90
43285;DHT22;28880;48.844;9.030;2022-09-09T05:21:46;14.50;99.90
43285;DHT22;28880;48.844;9.030;2022-09-09T05:24:12;14.50;99.90
43285;DHT22;28880;48.844;9.030;2022-09-09T05:26:38;14.50;99.90
43285;DHT22;28880;48.844;9.030;2022-09-09T05:29:03;14.50;99.90
43285;DHT22;28880;48.844;9.030;2022-09-09T05:31:30;14.60;99.90
43285;DHT22;28880;48.844;9.030;2022-09-09T05:33:56;14.60;99.90
43285;DHT22;28880;48.844;9.030;2022-09-09T05:36:22;14.60;99.90
43285;DHT22;28880;48.844;9.030;2022-09-09T05:38:48;14.60;99.90
43285;DHT22;28880;48.844;9.030;2022-09-09T05:41:16;14.60;99.90
43285;DHT22;28880;48.844;9.030;2022-09-09T05:43:43;14.60;99.90
43285;DHT22;28880;48.844;9.030;2022-09-09T05:46:17;14.60;99.90
43285;DHT22;28880;48.844;9.030;2022-09-09T05:48:45;14.70;99.90
43285;DHT22;28880;48.844;9.030;2022-09-09T05:51:15;14.70;99.90
43285;DHT22;28880;48.844;9.030;2022-09-09T05:53:41;14.80;99.90
43285;DHT22;28880;48.844;9.030;2022-09-09T05:56:10;14.80;99.90
43285;DHT22;28880;48.844;9.030;2022-09-09T05:58:37;14.80;99.90
43285;DHT22;28880;48.844;9.030;2022-09-09T06:01:12;14.90;99.90
43285;DHT22;28880;48.844;9.030;2022-09-09T06:03:42;15.00;99.90
43285;DHT22;28880;48.844;9.030;2022-09-09T06:06:11;15.00;99.90
43285;DHT22;28880;48.844;9.030;2022-09-09T06:08:39;15.10;99.90
43285;DHT22;28880;48.844;9.030;2022-09-09T06:11:06;15.20;99.90
43285;DHT22;28880;48.844;9.030;2022-09-09T06:13:32;15.20;99.90
43285;DHT22;28880;48.844;9.030;2022-09-09T06:15:58;15.30;99.90
43285;DHT22;28880;48.844;9.030;2022-09-09T06:18:24;15.40;99.90
43285;DHT22;28880;48.844;9.030;2022-09-09T06:23:20;15.40;99.90
43285;DHT22;28880;48.844;9.030;2022-09-09T06:25:46;15.50;99.90
43285;DHT22;28880;48.844;9.030;2022-09-09T06:28:12;15.40;99.90
43285;DHT22;28880;48.844;9.030;2022-09-09T06:30:38;15.50;99.90
43285;DHT22;28880;48.844;9.030;2022-09-09T06:33:05;15.40;99.90
43285;DHT22;28880;48.844;9.030;2022-09-09T06:35:30;15.40;99.90
43285;DHT22;28880;48.844;9.030;2022-09-09T06:37:56;15.40;99.90
43285;DHT22;28880;48.844;9.030;2022-09-09T06:40:24;15.40;99.90
43285;DHT22;28880;48.844;9.030;2022-09-09T06:42:50;15.30;99.90
43285;DHT22;28880;48.844;9.030;2022-09-09T06:45:15;15.40;99.90
43285;DHT22;28880;48.844;9.030;2022-09-09T06:47:42;15.30;99.90
43285;DHT22;28880;48.844;9.030;2022-09-09T06:50:07;15.40;99.90
43285;DHT22;28880;48.844;9.030;2022-09-09T06:52:33;15.40;99.90
43285;DHT22;28880;48.844;9.030;2022-09-09T06:54:59;15.50;99.90
43285;DHT22;28880;48.844;9.030;2022-09-09T06:57:24;15.50;99.90
43285;DHT22;28880;48.844;9.030;2022-09-09T06:59:50;15.60;99.90
43285;DHT22;28880;48.844;9.030;2022-09-09T07:02:16;15.70;99.90
43285;DHT22;28880;48.844;9.030;2022-09-09T07:04:41;15.70;99.90
43285;DHT22;28880;48.844;9.030;2022-09-09T07:07:07;15.80;99.90
43285;DHT22;28880;48.844;9.030;2022-09-09T07:09:35;15.80;99.90
43285;DHT22;28880;48.844;9.030;2022-09-09T07:12:00;15.90;99.90
43285;DHT22;28880;48.844;9.030;2022-09-09T07:14:26;15.90;99.90
43285;DHT22;28880;48.844;9.030;2022-09-09T07:16:52;16.00;99.90
43285;DHT22;28880;48.844;9.030;2022-09-09T07:19:18;16.10;99.90
43285;DHT22;28880;48.844;9.030;2022-09-09T07:21:43;16.20;99.90
43285;DHT22;28880;48.844;9.030;2022-09-09T07:24:10;16.30;99.90
43285;DHT22;28880;48.844;9.030;2022-09-09T07:26:36;16.40;99.90
43285;DHT22;28880;48.844;9.030;2022-09-09T07:29:03;16.40;99.90
43285;DHT22;28880;48.844;9.030;2022-09-09T07:31:31;16.50;99.90
43285;DHT22;28880;48.844;9.030;2022-09-09T07:33:57;16.60;99.90
43285;DHT22;28880;48.844;9.030;2022-09-09T07:36:27;16.60;99.90
43285;DHT22;28880;48.844;9.030;2022-09-09T07:38:56;16.70;99.90
43285;DHT22;28880;48.844;9.030;2022-09-09T07:41:28;16.70;99.90
43285;DHT22;28880;48.844;9.030;2022-09-09T07:43:54;16.80;99.90
43285;DHT22;28880;48.844;9.030;2022-09-09T07:46:21;16.80;99.90
43285;DHT22;28880;48.844;9.030;2022-09-09T07:48:49;16.90;99.90
43285;DHT22;28880;48.844;9.030;2022-09-09T07:51:22;17.00;99.90
43285;DHT22;28880;48.844;9.030;2022-09-09T07:53:51;17.20;99.90
43285;DHT22;28880;48.844;9.030;2022-09-09T07:56:18;17.30;99.90
43285;DHT22;28880;48.844;9.030;2022-09-09T07:58:47;17.40;99.90
43285;DHT22;28880;48.844;9.030;2022-09-09T08:01:24;17.40;99.90
43285;DHT22;28880;48.844;9.030;2022-09-09T08:03:55;17.50;99.90
43285;DHT22;28880;48.844;9.030;2022-09-09T08:06:21;17.50;99.90
43285;DHT22;28880;48.844;9.030;2022-09-09T08:08:50;17.60;99.90
43285;DHT22;28880;48.844;9.030;2022-09-09T08:11:16;17.70;99.90
43285;DHT22;28880;48.844;9.030;2022-09-09T08:13:43;17.80;99.90
43285;DHT22;28880;48.844;9.030;2022-09-09T08:16:13;17.90;99.90
43285;DHT22;28880;48.844;9.030;2022-09-09T08:18:39;17.90;99.90
43285;DHT22;28880;48.844;9.030;2022-09-09T08:21:07;18.00;99.90
43285;DHT22;28880;48.844;9.030;2022-09-09T08:23:33;18.20;99.90
43285;DHT22;28880;48.844;9.030;2022-09-09T08:26:10;18.60;99.90
43285;DHT22;28880;48.844;9.030;2022-09-09T08:28:35;18.70;99.90
43285;DHT22;28880;48.844;9.030;2022-09-09T08:31:15;18.80;99.90
43285;DHT22;28880;48.844;9.030;2022-09-09T08:33:42;18.70;99.90
43285;DHT22;28880;48.844;9.030;2022-09-09T08:36:12;18.80;99.90
43285;DHT22;28880;48.844;9.030;2022-09-09T08:38:38;18.80;99.90
43285;DHT22;28880;48.844;9.030;2022-09-09T08:43:47;19.00;99.90
43285;DHT22;28880;48.844;9.030;2022-09-09T08:46:24;19.20;99.90
43285;DHT22;28880;48.844;9.030;2022-09-09T08:48:58;19.40;99.90
43285;DHT22;28880;48.844;9.030;2022-09-09T08:51:29;19.50;99.90
43285;DHT22;28880;48.844;9.030;2022-09-09T08:53:58;19.60;99.90
43285;DHT22;28880;48.844;9.030;2022-09-09T08:56:27;19.60;99.90
43285;DHT22;28880;48.844;9.030;2022-09-09T08:58:54;19.60;99.90
43285;DHT22;28880;48.844;9.030;2022-09-09T09:01:40;19.60;99.90
43285;DHT22;28880;48.844;9.030;2022-09-09T09:10:06;19.50;99.80
43285;DHT22;28880;48.844;9.030;2022-09-09T09:12:41;19.30;99.90
43285;DHT22;28880;48.844;9.030;2022-09-09T09:15:19;19.20;99.80
43285;DHT22;28880;48.844;9.030;2022-09-09T09:17:46;19.10;99.90
43285;DHT22;28880;48.844;9.030;2022-09-09T09:20:15;19.20;99.90
43285;DHT22;28880;48.844;9.030;2022-09-09T09:22:51;19.30;99.90
43285;DHT22;28880;48.844;9.030;2022-09-09T09:25:21;19.50;99.90
43285;DHT22;28880;48.844;9.030;2022-09-09T09:30:48;20.00;99.90
43285;DHT22;28880;48.844;9.030;2022-09-09T09:33:15;20.00;99.90
43285;DHT22;28880;48.844;9.030;2022-09-09T09:35:43;20.10;99.40
43285;DHT22;28880;48.844;9.030;2022-09-09T09:38:20;20.20;99.30
43285;DHT22;28880;48.844;9.030;2022-09-09T09:40:52;20.20;99.90
43285;DHT22;28880;48.844;9.030;2022-09-09T09:43:30;20.20;99.90
43285;DHT22;28880;48.844;9.030;2022-09-09T09:45:56;20.40;99.90
43285;DHT22;28880;48.844;9.030;2022-09-09T09:48:26;20.40;99.80
43285;DHT22;28880;48.844;9.030;2022-09-09T09:50:55;20.50;99.90
43285;DHT22;28880;48.844;9.030;2022-09-09T09:53:27;20.50;99.90
43285;DHT22;28880;48.844;9.030;2022-09-09T09:56:00;20.60;99.70
43285;DHT22;28880;48.844;9.030;2022-09-09T09:58:29;20.60;99.50
43285;DHT22;28880;48.844;9.030;2022-09-09T10:00:57;20.70;99.10
43285;DHT22;28880;48.844;9.030;2022-09-09T10:03:28;20.60;99.20
43285;DHT22;28880;48.844;9.030;2022-09-09T10:05:54;20.80;98.70
43285;DHT22;28880;48.844;9.030;2022-09-09T10:08:23;20.90;98.20
43285;DHT22;28880;48.844;9.030;2022-09-09T10:19:21;21.20;97.10
43285;DHT22;28880;48.844;9.030;2022-09-09T10:27:09;20.90;97.10
43285;DHT22;28880;48.844;9.030;2022-09-09T10:33:00;21.10;95.90
43285;DHT22;28880;48.844;9.030;2022-09-09T10:35:44;21.20;95.50
43285;DHT22;28880;48.844;9.030;2022-09-09T10:38:38;21.00;95.60
43285;DHT22;28880;48.844;9.030;2022-09-09T10:43:52;20.90;96.10
43285;DHT22;28880;48.844;9.030;2022-09-09T10:49:24;20.70;96.80
43285;DHT22;28880;48.844;9.030;2022-09-09T10:54:52;20.80;96.70
43285;DHT22;28880;48.844;9.030;2022-09-09T10:57:43;20.70;96.80
43285;DHT22;28880;48.844;9.030;2022-09-09T11:00:34;20.70;96.70
43285;DHT22;28880;48.844;9.030;2022-09-09T11:03:02;20.60;96.40
43285;DHT22;28880;48.844;9.030;2022-09-09T11:05:39;20.60;96.00
43285;DHT22;28880;48.844;9.030;2022-09-09T11:11:03;20.30;97.00
43285;DHT22;28880;48.844;9.030;2022-09-09T11:19:00;18.70;99.90
43285;DHT22;28880;48.844;9.030;2022-09-09T11:21:48;18.40;99.90
43285;DHT22;28880;48.844;9.030;2022-09-09T11:24:28;18.30;99.90
43285;DHT22;28880;48.844;9.030;2022-09-09T11:27:09;18.30;99.90
43285;DHT22;28880;48.844;9.030;2022-09-09T11:40:33;18.40;99.90
43285;DHT22;28880;48.844;9.030;2022-09-09T11:43:11;18.30;99.90
43285;DHT22;28880;48.844;9.030;2022-09-09T11:45:38;18.20;99.90
43285;DHT22;28880;48.844;9.030;2022-09-09T11:48:05;18.20;99.90
43285;DHT22;28880;48.844;9.030;2022-09-09T11:50:35;18.20;99.90
43285;DHT22;28880;48.844;9.030;2022-09-09T11:53:20;18.40;99.90
43285;DHT22;28880;48.844;9.030;2022-09-09T11:56:10;18.40;99.90
43285;DHT22;28880;48.844;9.030;2022-09-09T11:58:42;18.60;99.90
43285;DHT22;28880;48.844;9.030;2022-09-09T12:01:39;18.80;99.90
43285;DHT22;28880;48.844;9.030;2022-09-09T12:04:11;19.00;99.80
43285;DHT22;28880;48.844;9.030;2022-09-09T12:09:32;19.10;98.60
43285;DHT22;28880;48.844;9.030;2022-09-09T12:12:26;19.40;98.40
43285;DHT22;28880;48.844;9.030;2022-09-09T12:17:44;19.80;97.30
43285;DHT22;28880;48.844;9.030;2022-09-09T12:20:23;19.80;96.90
43285;DHT22;28880;48.844;9.030;2022-09-09T12:33:45;20.40;96.50
43285;DHT22;28880;48.844;9.030;2022-09-09T12:36:19;20.50;98.20
43285;DHT22;28880;48.844;9.030;2022-09-09T12:38:45;20.40;98.10
43285;DHT22;28880;48.844;9.030;2022-09-09T12:41:23;20.40;98.90
43285;DHT22;28880;48.844;9.030;2022-09-09T12:43:50;20.40;99.00
43285;DHT22;28880;48.844;9.030;2022-09-09T12:48:57;20.50;98.30
43285;DHT22;28880;48.844;9.030;2022-09-09T12:53:51;20.60;98.20
43285;DHT22;28880;48.844;9.030;2022-09-09T12:56:22;20.70;98.00
43285;DHT22;28880;48.844;9.030;2022-09-09T12:58:50;20.80;98.00
43285;DHT22;28880;48.844;9.030;2022-09-09T13:01:30;20.60;97.80
43285;DHT22;28880;48.844;9.030;2022-09-09T13:03:56;20.30;97.30
43285;DHT22;28880;48.844;9.030;2022-09-09T13:06:31;20.30;97.40
43285;DHT22;28880;48.844;9.030;2022-09-09T13:09:01;20.50;96.60
43285;DHT22;28880;48.844;9.030;2022-09-09T13:11:41;20.80;96.00
43285;DHT22;28880;48.844;9.030;2022-09-09T13:14:37;21.10;94.90
43285;DHT22;28880;48.844;9.030;2022-09-09T13:17:05;21.10;95.30
43285;DHT22;28880;48.844;9.030;2022-09-09T13:19:37;21.30;95.00
43285;DHT22;28880;48.844;9.030;2022-09-09T13:22:26;21.40;94.90
43285;DHT22;28880;48.844;9.030;2022-09-09T13:25:25;21.60;94.90
43285;DHT22;28880;48.844;9.030;2022-09-09T13:30:30;21.70;94.00
43285;DHT22;28880;48.844;9.030;2022-09-09T13:33:03;22.10;93.30
43285;DHT22;28880;48.844;9.030;2022-09-09T13:35:29;22.20;93.50
43285;DHT22;28880;48.844;9.030;2022-09-09T13:37:55;22.50;92.80
43285;DHT22;28880;48.844;9.030;2022-09-09T13:40:22;22.40;92.80
43285;DHT22;28880;48.844;9.030;2022-09-09T13:42:52;22.50;92.70
43285;DHT22;28880;48.844;9.030;2022-09-09T13:45:23;22.70;92.40
43285;DHT22;28880;48.844;9.030;2022-09-09T13:47:52;23.00;91.60
43285;DHT22;28880;48.844;9.030;2022-09-09T13:50:27;22.90;91.20
43285;DHT22;28880;48.844;9.030;2022-09-09T13:52:55;22.70;91.40
43285;DHT22;28880;48.844;9.030;2022-09-09T13:55:27;22.70;91.00
43285;DHT22;28880;48.844;9.030;2022-09-09T13:57:55;22.20;91.10
43285;DHT22;28880;48.844;9.030;2022-09-09T14:00:22;22.00;91.70
43285;DHT22;28880;48.844;9.030;2022-09-09T14:02:49;21.90;91.70
43285;DHT22;28880;48.844;9.030;2022-09-09T14:05:16;21.90;91.80
43285;DHT22;28880;48.844;9.030;2022-09-09T14:07:43;22.70;91.30
43285;DHT22;28880;48.844;9.030;2022-09-09T14:10:10;23.10;91.20
43285;DHT22;28880;48.844;9.030;2022-09-09T14:12:36;23.30;90.60
43285;DHT22;28880;48.844;9.030;2022-09-09T14:15:05;23.80;89.80
43285;DHT22;28880;48.844;9.030;2022-09-09T14:17:31;24.30;88.80
43285;DHT22;28880;48.844;9.030;2022-09-09T14:19:57;24.70;87.00
43285;DHT22;28880;48.844;9.030;2022-09-09T14:22:23;24.80;84.10
43285;DHT22;28880;48.844;9.030;2022-09-09T14:24:49;24.00;84.10
43285;DHT22;28880;48.844;9.030;2022-09-09T14:27:16;24.00;84.60
43285;DHT22;28880;48.844;9.030;2022-09-09T14:29:44;24.50;83.70
43285;DHT22;28880;48.844;9.030;2022-09-09T14:32:10;25.10;82.40
43285;DHT22;28880;48.844;9.030;2022-09-09T14:34:36;24.70;82.80
43285;DHT22;28880;48.844;9.030;2022-09-09T14:37:02;23.90;82.50
43285;DHT22;28880;48.844;9.030;2022-09-09T14:39:27;23.30;85.00
43285;DHT22;28880;48.844;9.030;2022-09-09T14:41:53;23.00;86.00
43285;DHT22;28880;48.844;9.030;2022-09-09T14:44:19;22.80;87.00
43285;DHT22;28880;48.844;9.030;2022-09-09T14:46:44;22.40;87.90
43285;DHT22;28880;48.844;9.030;2022-09-09T14:49:10;22.30;88.50
43285;DHT22;28880;48.844;9.030;2022-09-09T14:51:36;22.30;88.80
43285;DHT22;28880;48.844;9.030;2022-09-09T14:54:02;22.20;88.00
43285;DHT22;28880;48.844;9.030;2022-09-09T14:56:30;22.00;87.90
43285;DHT22;28880;48.844;9.030;2022-09-09T14:58:58;21.80;87.50
43285;DHT22;28880;48.844;9.030;2022-09-09T15:01:26;21.60;88.40
43285;DHT22;28880;48.844;9.030;2022-09-09T15:04:00;21.50;89.20
43285;DHT22;28880;48.844;9.030;2022-09-09T15:06:28;21.40;89.50
43285;DHT22;28880;48.844;9.030;2022-09-09T15:08:56;21.30;87.50
43285;DHT22;28880;48.844;9.030;2022-09-09T15:11:27;21.30;87.20
43285;DHT22;28880;48.844;9.030;2022-09-09T15:13:53;21.20;87.50
43285;DHT22;28880;48.844;9.030;2022-09-09T15:16:21;21.20;88.00
43285;DHT22;28880;48.844;9.030;2022-09-09T15:18:51;21.20;88.50
43285;DHT22;28880;48.844;9.030;2022-09-09T15:21:19;21.10;88.70
43285;DHT22;28880;48.844;9.030;2022-09-09T15:23:46;21.10;89.30
43285;DHT22;28880;48.844;9.030;2022-09-09T15:26:13;21.10;89.40
43285;DHT22;28880;48.844;9.030;2022-09-09T15:28:43;21.30;89.10
43285;DHT22;28880;48.844;9.030;2022-09-09T15:31:12;21.60;88.80
43285;DHT22;28880;48.844;9.030;2022-09-09T15:33:40;21.70;89.00
43285;DHT22;28880;48.844;9.030;2022-09-09T15:38:41;21.50;89.80
43285;DHT22;28880;48.844;9.030;2022-09-09T15:41:07;21.30;90.00
43285;DHT22;28880;48.844;9.030;2022-09-09T15:43:32;21.00;90.50
43285;DHT22;28880;48.844;9.030;2022-09-09T15:46:04;20.90;90.70
43285;DHT22;28880;48.844;9.030;2022-09-09T15:48:34;20.80;90.90
43285;DHT22;28880;48.844;9.030;2022-09-09T15:51:04;20.70;91.20
43285;DHT22;28880;48.844;9.030;2022-09-09T15:53:30;20.60;91.30
43285;DHT22;28880;48.844;9.030;2022-09-09T15:55:57;20.60;91.60
43285;DHT22;28880;48.844;9.030;2022-09-09T15:58:23;20.60;91.40
43285;DHT22;28880;48.844;9.030;2022-09-09T16:00:49;20.50;91.50
43285;DHT22;28880;48.844;9.030;2022-09-09T16:03:14;20.40;91.60
43285;DHT22;28880;48.844;9.030;2022-09-09T16:05:40;20.40;91.70
43285;DHT22;28880;48.844;9.030;2022-09-09T16:08:06;20.30;92.10
43285;DHT22;28880;48.844;9.030;2022-09-09T16:10:32;20.30;92.20
43285;DHT22;28880;48.844;9.030;2022-09-09T16:12:57;20.20;92.60
43285;DHT22;28880;48.844;9.030;2022-09-09T16:15:24;19.90;91.60
43285;DHT22;28880;48.844;9.030;2022-09-09T16:17:53;19.00;92.20
43285;DHT22;28880;48.844;9.030;2022-09-09T16:20:19;18.50;93.40
43285;DHT22;28880;48.844;9.030;2022-09-09T16:22:44;18.10;94.30
43285;DHT22;28880;48.844;9.030;2022-09-09T16:25:10;17.80;95.50
43285;DHT22;28880;48.844;9.030;2022-09-09T16:27:36;17.50;96.20
43285;DHT22;28880;48.844;9.030;2022-09-09T16:30:01;17.40;96.40
43285;DHT22;28880;48.844;9.030;2022-09-09T16:32:27;17.40;96.40
43285;DHT22;28880;48.844;9.030;2022-09-09T16:34:53;17.40;96.50
43285;DHT22;28880;48.844;9.030;2022-09-09T16:37:18;17.30;96.50
43285;DHT22;28880;48.844;9.030;2022-09-09T16:39:44;17.30;96.30
43285;DHT22;28880;48.844;9.030;2022-09-09T16:42:10;17.30;96.30
43285;DHT22;28880;48.844;9.030;2022-09-09T16:44:38;17.40;96.80
43285;DHT22;28880;48.844;9.030;2022-09-09T16:47:03;17.40;97.90
43285;DHT22;28880;48.844;9.030;2022-09-09T16:49:29;17.30;97.90
43285;DHT22;28880;48.844;9.030;2022-09-09T16:51:57;17.30;98.70
43285;DHT22;28880;48.844;9.030;2022-09-09T16:54:23;17.20;97.50
43285;DHT22;28880;48.844;9.030;2022-09-09T16:56:50;17.00;99.20
43285;DHT22;28880;48.844;9.030;2022-09-09T16:59:19;16.80;99.90
43285;DHT22;28880;48.844;9.030;2022-09-09T17:01:46;16.60;99.90
43285;DHT22;28880;48.844;9.030;2022-09-09T17:04:17;16.50;99.90
43285;DHT22;28880;48.844;9.030;2022-09-09T17:06:47;16.40;99.90
43285;DHT22;28880;48.844;9.030;2022-09-09T17:09:15;16.40;99.90
43285;DHT22;28880;48.844;9.030;2022-09-09T17:11:41;16.40;99.90
43285;DHT22;28880;48.844;9.030;2022-09-09T17:14:08;16.40;99.90
43285;DHT22;28880;48.844;9.030;2022-09-09T17:16:35;16.40;99.90
43285;DHT22;28880;48.844;9.030;2022-09-09T17:19:02;16.40;99.90
43285;DHT22;28880;48.844;9.030;2022-09-09T17:21:29;16.40;99.90
43285;DHT22;28880;48.844;9.030;2022-09-09T17:23:55;16.40;99.90
43285;DHT22;28880;48.844;9.030;2022-09-09T17:26:25;16.30;99.90
43285;DHT22;28880;48.844;9.030;2022-09-09T17:28:56;16.30;99.90
43285;DHT22;28880;48.844;9.030;2022-09-09T17:31:24;16.30;99.90